sensor_id;sensor_type;location;lat;lon;timestamp;P1;durP1;ratioP1;P2;durP2;ratioP2
23400;SDS011;11873;49.300;8.920;2022-08-01T00:01:23;3.07;;;2.27;;
23400;SDS011;11873;49.300;8.920;2022-08-01T00:06:23;2.60;;;2.40;;
23400;SDS011;11873;49.300;8.920;2022-08-01T00:11:23;2.77;;;2.27;;
23400;SDS011;11873;49.300;8.920;2022-08-01T00:16:23;2.80;;;2.60;;
23400;SDS011;11873;49.300;8.920;2022-08-01T00:21:23;3.70;;;2.43;;
23400;SDS011;11873;49.300;8.920;2022-08-01T00:26:24;2.97;;;2.33;;
23400;SDS011;11873;49.300;8.920;2022-08-01T00:31:24;6.00;;;2.50;;
23400;SDS011;11873;49.300;8.920;2022-08-01T00:36:24;2.50;;;2.30;;
23400;SDS011;11873;49.300;8.920;2022-08-01T00:41:24;2.50;;;2.30;;
23400;SDS011;11873;49.300;8.920;2022-08-01T00:46:24;2.90;;;2.33;;
23400;SDS011;11873;49.300;8.920;2022-08-01T00:51:25;2.80;;;2.47;;
23400;SDS011;11873;49.300;8.920;2022-08-01T00:56:26;2.30;;;2.10;;
23400;SDS011;11873;49.300;8.920;2022-08-01T01:01:26;2.43;;;2.27;;
23400;SDS011;11873;49.300;8.920;2022-08-01T01:16:45;2.20;;;2.00;;
23400;SDS011;11873;49.300;8.920;2022-08-01T01:32:23;2.00;;;1.90;;
23400;SDS011;11873;49.300;8.920;2022-08-01T01:37:26;2.10;;;1.90;;
23400;SDS011;11873;49.300;8.920;2022-08-01T01:42:27;2.33;;;2.13;;
23400;SDS011;11873;49.300;8.920;2022-08-01T01:47:28;2.20;;;2.00;;
23400;SDS011;11873;49.300;8.920;2022-08-01T01:52:29;2.40;;;2.20;;
23400;SDS011;11873;49.300;8.920;2022-08-01T01:57:31;3.20;;;2.30;;
23400;SDS011;11873;49.300;8.920;2022-08-01T02:02:32;2.63;;;2.43;;
23400;SDS011;11873;49.300;8.920;2022-08-01T02:07:33;3.80;;;2.30;;
23400;SDS011;11873;49.300;8.920;2022-08-01T02:12:35;5.07;;;2.60;;
23400;SDS011;11873;49.300;8.920;2022-08-01T02:17:37;2.60;;;2.40;;
23400;SDS011;11873;49.300;8.920;2022-08-01T02:22:44;3.50;;;2.60;;
23400;SDS011;11873;49.300;8.920;2022-08-01T02:28:01;2.90;;;2.60;;
23400;SDS011;11873;49.300;8.920;2022-08-01T02:33:05;3.23;;;2.60;;
23400;SDS011;11873;49.300;8.920;2022-08-01T02:38:05;2.03;;;1.90;;
23400;SDS011;11873;49.300;8.920;2022-08-01T02:43:06;2.40;;;2.20;;
23400;SDS011;11873;49.300;8.920;2022-08-01T02:48:08;2.63;;;2.43;;
23400;SDS011;11873;49.300;8.920;2022-08-01T02:53:09;2.10;;;2.00;;
23400;SDS011;11873;49.300;8.920;2022-08-01T02:58:12;2.30;;;2.10;;
23400;SDS011;11873;49.300;8.920;2022-08-01T03:03:13;4.03;;;2.27;;
23400;SDS011;11873;49.300;8.920;2022-08-01T03:08:13;2.67;;;2.20;;
23400;SDS011;11873;49.300;8.920;2022-08-01T03:13:15;2.53;;;2.33;;
23400;SDS011;11873;49.300;8.920;2022-08-01T03:18:16;3.80;;;2.13;;
23400;SDS011;11873;49.300;8.920;2022-08-01T03:23:17;2.80;;;2.30;;
23400;SDS011;11873;49.300;8.920;2022-08-01T03:28:17;2.67;;;2.13;;
23400;SDS011;11873;49.300;8.920;2022-08-01T03:33:18;1.93;;;1.83;;
23400;SDS011;11873;49.300;8.920;2022-08-01T03:38:18;3.07;;;2.00;;
23400;SDS011;11873;49.300;8.920;2022-08-01T03:43:22;3.30;;;2.47;;
23400;SDS011;11873;49.300;8.920;2022-08-01T03:48:26;2.70;;;2.20;;
23400;SDS011;11873;49.300;8.920;2022-08-01T03:53:29;2.60;;;2.07;;
23400;SDS011;11873;49.300;8.920;2022-08-01T03:58:30;2.50;;;2.30;;
23400;SDS011;11873;49.300;8.920;2022-08-01T04:03:30;4.30;;;2.23;;
23400;SDS011;11873;49.300;8.920;2022-08-01T04:08:34;3.47;;;2.50;;
23400;SDS011;11873;49.300;8.920;2022-08-01T04:13:34;2.80;;;2.23;;
23400;SDS011;11873;49.300;8.920;2022-08-01T04:18:35;3.07;;;2.43;;
23400;SDS011;11873;49.300;8.920;2022-08-01T04:23:35;2.37;;;2.17;;
23400;SDS011;11873;49.300;8.920;2022-08-01T04:28:36;4.40;;;1.90;;
23400;SDS011;11873;49.300;8.920;2022-08-01T04:33:38;2.30;;;2.10;;
23400;SDS011;11873;49.300;8.920;2022-08-01T04:38:38;2.03;;;1.80;;
23400;SDS011;11873;49.300;8.920;2022-08-01T04:43:39;2.73;;;2.23;;
23400;SDS011;11873;49.300;8.920;2022-08-01T04:48:40;3.53;;;2.23;;
23400;SDS011;11873;49.300;8.920;2022-08-01T04:53:41;2.00;;;1.90;;
23400;SDS011;11873;49.300;8.920;2022-08-01T04:58:41;2.13;;;1.97;;
23400;SDS011;11873;49.300;8.920;2022-08-01T05:03:42;2.40;;;2.20;;
23400;SDS011;11873;49.300;8.920;2022-08-01T05:08:42;2.00;;;1.90;;
23400;SDS011;11873;49.300;8.920;2022-08-01T05:13:42;3.00;;;2.03;;
23400;SDS011;11873;49.300;8.920;2022-08-01T05:18:42;2.00;;;1.90;;
23400;SDS011;11873;49.300;8.920;2022-08-01T05:23:43;8.07;;;4.63;;
23400;SDS011;11873;49.300;8.920;2022-08-01T05:28:43;2.70;;;2.50;;
23400;SDS011;11873;49.300;8.920;2022-08-01T05:33:43;2.73;;;2.50;;
23400;SDS011;11873;49.300;8.920;2022-08-01T05:38:43;2.90;;;2.47;;
23400;SDS011;11873;49.300;8.920;2022-08-01T05:43:43;5.20;;;3.50;;
23400;SDS011;11873;49.300;8.920;2022-08-01T05:48:43;2.67;;;2.37;;
23400;SDS011;11873;49.300;8.920;2022-08-01T05:53:44;2.27;;;2.07;;
23400;SDS011;11873;49.300;8.920;2022-08-01T05:58:44;2.80;;;2.30;;
23400;SDS011;11873;49.300;8.920;2022-08-01T06:03:44;2.13;;;2.03;;
23400;SDS011;11873;49.300;8.920;2022-08-01T06:08:44;2.20;;;2.10;;
23400;SDS011;11873;49.300;8.920;2022-08-01T06:13:45;3.00;;;2.70;;
23400;SDS011;11873;49.300;8.920;2022-08-01T06:18:45;2.63;;;2.03;;
23400;SDS011;11873;49.300;8.920;2022-08-01T06:23:45;2.83;;;2.30;;
23400;SDS011;11873;49.300;8.920;2022-08-01T06:28:45;2.37;;;2.17;;
23400;SDS011;11873;49.300;8.920;2022-08-01T06:33:46;2.10;;;1.80;;
23400;SDS011;11873;49.300;8.920;2022-08-01T06:38:46;5.07;;;2.10;;
23400;SDS011;11873;49.300;8.920;2022-08-01T06:43:46;2.27;;;2.07;;
23400;SDS011;11873;49.300;8.920;2022-08-01T06:48:46;2.23;;;2.07;;
23400;SDS011;11873;49.300;8.920;2022-08-01T06:53:46;1.90;;;1.80;;
23400;SDS011;11873;49.300;8.920;2022-08-01T06:58:46;1.93;;;1.77;;
23400;SDS011;11873;49.300;8.920;2022-08-01T07:03:47;1.83;;;1.73;;
23400;SDS011;11873;49.300;8.920;2022-08-01T07:08:47;1.97;;;1.80;;
23400;SDS011;11873;49.300;8.920;2022-08-01T07:13:47;3.60;;;1.70;;
23400;SDS011;11873;49.300;8.920;2022-08-01T07:18:47;1.83;;;1.70;;
23400;SDS011;11873;49.300;8.920;2022-08-01T07:23:48;1.43;;;1.37;;
23400;SDS011;11873;49.300;8.920;2022-08-01T07:28:48;1.30;;;1.30;;
23400;SDS011;11873;49.300;8.920;2022-08-01T07:33:48;4.13;;;1.30;;
23400;SDS011;11873;49.300;8.920;2022-08-01T07:38:49;2.17;;;1.37;;
23400;SDS011;11873;49.300;8.920;2022-08-01T07:43:49;1.47;;;1.30;;
23400;SDS011;11873;49.300;8.920;2022-08-01T07:48:49;2.80;;;1.50;;
23400;SDS011;11873;49.300;8.920;2022-08-01T07:53:49;2.17;;;1.43;;
23400;SDS011;11873;49.300;8.920;2022-08-01T07:58:50;4.47;;;1.80;;
23400;SDS011;11873;49.300;8.920;2022-08-01T08:03:52;1.42;;;1.20;;
23400;SDS011;11873;49.300;8.920;2022-08-01T08:08:53;1.53;;;1.43;;
23400;SDS011;11873;49.300;8.920;2022-08-01T08:13:53;1.27;;;1.10;;
23400;SDS011;11873;49.300;8.920;2022-08-01T08:18:53;1.80;;;1.57;;
23400;SDS011;11873;49.300;8.920;2022-08-01T08:23:53;1.63;;;1.53;;
23400;SDS011;11873;49.300;8.920;2022-08-01T08:28:53;1.27;;;1.27;;
23400;SDS011;11873;49.300;8.920;2022-08-01T08:33:53;1.90;;;1.37;;
23400;SDS011;11873;49.300;8.920;2022-08-01T08:38:54;2.20;;;1.30;;
23400;SDS011;11873;49.300;8.920;2022-08-01T08:43:54;1.15;;;1.02;;
23400;SDS011;11873;49.300;8.920;2022-08-01T08:48:55;1.48;;;1.00;;
23400;SDS011;11873;49.300;8.920;2022-08-01T08:53:55;1.77;;;1.10;;
23400;SDS011;11873;49.300;8.920;2022-08-01T08:58:56;1.37;;;1.25;;
23400;SDS011;11873;49.300;8.920;2022-08-01T09:03:56;1.00;;;1.00;;
23400;SDS011;11873;49.300;8.920;2022-08-01T09:08:57;1.00;;;1.00;;
23400;SDS011;11873;49.300;8.920;2022-08-01T09:14:16;1.02;;;1.02;;
23400;SDS011;11873;49.300;8.920;2022-08-01T09:19:18;2.53;;;1.60;;
23400;SDS011;11873;49.300;8.920;2022-08-01T09:24:18;1.55;;;1.00;;
23400;SDS011;11873;49.300;8.920;2022-08-01T09:29:19;1.47;;;1.10;;
23400;SDS011;11873;49.300;8.920;2022-08-01T09:34:26;2.37;;;1.27;;
23400;SDS011;11873;49.300;8.920;2022-08-01T09:39:30;1.40;;;0.90;;
23400;SDS011;11873;49.300;8.920;2022-08-01T09:44:38;3.73;;;1.20;;
23400;SDS011;11873;49.300;8.920;2022-08-01T09:49:39;0.87;;;0.87;;
23400;SDS011;11873;49.300;8.920;2022-08-01T09:54:40;0.90;;;0.90;;
23400;SDS011;11873;49.300;8.920;2022-08-01T09:59:41;0.87;;;0.87;;
23400;SDS011;11873;49.300;8.920;2022-08-01T10:04:45;1.90;;;0.93;;
23400;SDS011;11873;49.300;8.920;2022-08-01T10:09:46;0.98;;;0.98;;
23400;SDS011;11873;49.300;8.920;2022-08-01T10:14:47;1.25;;;1.15;;
23400;SDS011;11873;49.300;8.920;2022-08-01T10:19:48;1.33;;;1.10;;
23400;SDS011;11873;49.300;8.920;2022-08-01T10:24:48;1.85;;;0.98;;
23400;SDS011;11873;49.300;8.920;2022-08-01T10:29:51;1.15;;;0.90;;
23400;SDS011;11873;49.300;8.920;2022-08-01T10:34:54;1.33;;;1.20;;
23400;SDS011;11873;49.300;8.920;2022-08-01T10:39:55;1.65;;;1.02;;
23400;SDS011;11873;49.300;8.920;2022-08-01T10:44:56;1.80;;;1.20;;
23400;SDS011;11873;49.300;8.920;2022-08-01T10:50:01;3.45;;;1.20;;
23400;SDS011;11873;49.300;8.920;2022-08-01T10:55:02;1.52;;;1.00;;
23400;SDS011;11873;49.300;8.920;2022-08-01T11:00:03;1.50;;;0.88;;
23400;SDS011;11873;49.300;8.920;2022-08-01T11:05:09;1.57;;;1.10;;
23400;SDS011;11873;49.300;8.920;2022-08-01T11:10:16;0.95;;;0.95;;
23400;SDS011;11873;49.300;8.920;2022-08-01T11:15:19;1.60;;;1.50;;
23400;SDS011;11873;49.300;8.920;2022-08-01T11:25:20;1.00;;;1.00;;
23400;SDS011;11873;49.300;8.920;2022-08-01T11:30:23;0.90;;;0.90;;
23400;SDS011;11873;49.300;8.920;2022-08-01T11:35:24;1.07;;;0.90;;
23400;SDS011;11873;49.300;8.920;2022-08-01T11:40:25;0.90;;;0.90;;
23400;SDS011;11873;49.300;8.920;2022-08-01T11:45:45;1.23;;;1.10;;
23400;SDS011;11873;49.300;8.920;2022-08-01T11:50:45;1.00;;;1.00;;
23400;SDS011;11873;49.300;8.920;2022-08-01T11:55:47;0.77;;;0.77;;
23400;SDS011;11873;49.300;8.920;2022-08-01T12:00:50;1.70;;;1.30;;
23400;SDS011;11873;49.300;8.920;2022-08-01T12:05:51;1.17;;;1.13;;
23400;SDS011;11873;49.300;8.920;2022-08-01T12:10:51;1.20;;;1.10;;
23400;SDS011;11873;49.300;8.920;2022-08-01T12:15:52;4.33;;;1.70;;
23400;SDS011;11873;49.300;8.920;2022-08-01T12:20:59;1.57;;;1.40;;
23400;SDS011;11873;49.300;8.920;2022-08-01T12:26:01;1.10;;;1.00;;
23400;SDS011;11873;49.300;8.920;2022-08-01T12:31:02;1.90;;;1.67;;
23400;SDS011;11873;49.300;8.920;2022-08-01T12:36:02;1.10;;;1.10;;
23400;SDS011;11873;49.300;8.920;2022-08-01T12:41:02;1.20;;;1.20;;
23400;SDS011;11873;49.300;8.920;2022-08-01T12:46:02;1.27;;;1.03;;
23400;SDS011;11873;49.300;8.920;2022-08-01T12:51:03;2.20;;;1.20;;
23400;SDS011;11873;49.300;8.920;2022-08-01T12:56:03;1.13;;;1.03;;
23400;SDS011;11873;49.300;8.920;2022-08-01T13:01:05;1.03;;;1.03;;
23400;SDS011;11873;49.300;8.920;2022-08-01T13:06:14;1.13;;;1.07;;
23400;SDS011;11873;49.300;8.920;2022-08-01T13:11:15;1.10;;;1.10;;
23400;SDS011;11873;49.300;8.920;2022-08-01T13:16:19;1.27;;;1.23;;
23400;SDS011;11873;49.300;8.920;2022-08-01T13:21:24;1.10;;;1.10;;
23400;SDS011;11873;49.300;8.920;2022-08-01T13:32:11;1.57;;;1.40;;
23400;SDS011;11873;49.300;8.920;2022-08-01T13:37:11;2.83;;;1.30;;
23400;SDS011;11873;49.300;8.920;2022-08-01T13:42:13;2.77;;;1.10;;
23400;SDS011;11873;49.300;8.920;2022-08-01T13:47:14;1.20;;;1.10;;
23400;SDS011;11873;49.300;8.920;2022-08-01T13:52:14;1.77;;;1.23;;
23400;SDS011;11873;49.300;8.920;2022-08-01T13:57:14;3.87;;;1.20;;
23400;SDS011;11873;49.300;8.920;2022-08-01T14:02:14;1.00;;;1.00;;
23400;SDS011;11873;49.300;8.920;2022-08-01T14:07:21;1.10;;;1.10;;
23400;SDS011;11873;49.300;8.920;2022-08-01T14:12:21;0.97;;;0.97;;
23400;SDS011;11873;49.300;8.920;2022-08-01T14:17:21;1.00;;;1.00;;
23400;SDS011;11873;49.300;8.920;2022-08-01T14:22:22;0.97;;;0.97;;
23400;SDS011;11873;49.300;8.920;2022-08-01T14:27:22;1.20;;;1.10;;
23400;SDS011;11873;49.300;8.920;2022-08-01T14:32:22;1.37;;;1.27;;
23400;SDS011;11873;49.300;8.920;2022-08-01T14:37:23;2.10;;;1.20;;
23400;SDS011;11873;49.300;8.920;2022-08-01T14:42:23;1.30;;;1.20;;
23400;SDS011;11873;49.300;8.920;2022-08-01T14:47:23;1.00;;;1.00;;
23400;SDS011;11873;49.300;8.920;2022-08-01T14:52:23;1.20;;;1.20;;
23400;SDS011;11873;49.300;8.920;2022-08-01T14:57:23;1.43;;;1.30;;
23400;SDS011;11873;49.300;8.920;2022-08-01T15:02:24;1.40;;;1.30;;
23400;SDS011;11873;49.300;8.920;2022-08-01T15:07:24;1.47;;;1.40;;
23400;SDS011;11873;49.300;8.920;2022-08-01T15:12:24;1.23;;;1.17;;
23400;SDS011;11873;49.300;8.920;2022-08-01T15:17:25;2.93;;;1.27;;
23400;SDS011;11873;49.300;8.920;2022-08-01T15:22:26;1.20;;;1.10;;
23400;SDS011;11873;49.300;8.920;2022-08-01T15:27:27;2.87;;;1.13;;
23400;SDS011;11873;49.300;8.920;2022-08-01T15:32:27;1.03;;;1.03;;
23400;SDS011;11873;49.300;8.920;2022-08-01T15:37:27;1.43;;;1.20;;
23400;SDS011;11873;49.300;8.920;2022-08-01T15:42:28;1.10;;;1.00;;
23400;SDS011;11873;49.300;8.920;2022-08-01T15:47:28;1.07;;;1.07;;
23400;SDS011;11873;49.300;8.920;2022-08-01T15:52:28;1.90;;;0.90;;
23400;SDS011;11873;49.300;8.920;2022-08-01T15:57:28;1.30;;;1.20;;
23400;SDS011;11873;49.300;8.920;2022-08-01T16:02:28;3.50;;;1.30;;
23400;SDS011;11873;49.300;8.920;2022-08-01T16:07:28;1.00;;;1.00;;
23400;SDS011;11873;49.300;8.920;2022-08-01T16:12:29;1.10;;;1.00;;
23400;SDS011;11873;49.300;8.920;2022-08-01T16:17:29;2.37;;;0.93;;
23400;SDS011;11873;49.300;8.920;2022-08-01T16:22:29;1.20;;;0.80;;
23400;SDS011;11873;49.300;8.920;2022-08-01T16:27:29;1.23;;;1.10;;
23400;SDS011;11873;49.300;8.920;2022-08-01T16:32:29;1.00;;;1.00;;
23400;SDS011;11873;49.300;8.920;2022-08-01T16:37:29;0.90;;;0.90;;
23400;SDS011;11873;49.300;8.920;2022-08-01T16:42:31;1.17;;;1.03;;
23400;SDS011;11873;49.300;8.920;2022-08-01T16:47:31;1.00;;;0.90;;
23400;SDS011;11873;49.300;8.920;2022-08-01T16:52:31;0.90;;;0.90;;
23400;SDS011;11873;49.300;8.920;2022-08-01T16:57:31;1.00;;;1.00;;
23400;SDS011;11873;49.300;8.920;2022-08-01T17:02:32;1.40;;;1.10;;
23400;SDS011;11873;49.300;8.920;2022-08-01T17:07:32;0.80;;;0.80;;
23400;SDS011;11873;49.300;8.920;2022-08-01T17:12:32;0.87;;;0.87;;
23400;SDS011;11873;49.300;8.920;2022-08-01T17:17:33;0.90;;;0.90;;
23400;SDS011;11873;49.300;8.920;2022-08-01T17:22:33;1.40;;;1.00;;
23400;SDS011;11873;49.300;8.920;2022-08-01T17:27:33;0.90;;;0.90;;
23400;SDS011;11873;49.300;8.920;2022-08-01T17:32:33;0.80;;;0.80;;
23400;SDS011;11873;49.300;8.920;2022-08-01T17:37:33;0.90;;;0.90;;
23400;SDS011;11873;49.300;8.920;2022-08-01T17:42:34;1.33;;;1.00;;
23400;SDS011;11873;49.300;8.920;2022-08-01T17:47:34;1.10;;;0.90;;
23400;SDS011;11873;49.300;8.920;2022-08-01T17:52:34;0.80;;;0.80;;
23400;SDS011;11873;49.300;8.920;2022-08-01T17:57:34;1.77;;;1.20;;
23400;SDS011;11873;49.300;8.920;2022-08-01T18:02:34;1.10;;;1.10;;
23400;SDS011;11873;49.300;8.920;2022-08-01T18:07:35;1.00;;;1.00;;
23400;SDS011;11873;49.300;8.920;2022-08-01T18:12:35;1.20;;;1.20;;
23400;SDS011;11873;49.300;8.920;2022-08-01T18:17:35;1.17;;;1.07;;
23400;SDS011;11873;49.300;8.920;2022-08-01T18:22:35;2.20;;;1.10;;
23400;SDS011;11873;49.300;8.920;2022-08-01T18:27:35;1.20;;;1.10;;
23400;SDS011;11873;49.300;8.920;2022-08-01T18:32:36;1.30;;;1.20;;
23400;SDS011;11873;49.300;8.920;2022-08-01T18:37:37;0.93;;;0.93;;
23400;SDS011;11873;49.300;8.920;2022-08-01T18:42:37;1.00;;;1.00;;
23400;SDS011;11873;49.300;8.920;2022-08-01T18:47:37;0.80;;;0.80;;
23400;SDS011;11873;49.300;8.920;2022-08-01T18:52:38;1.53;;;1.13;;
23400;SDS011;11873;49.300;8.920;2022-08-01T18:57:38;0.93;;;0.90;;
23400;SDS011;11873;49.300;8.920;2022-08-01T19:02:38;1.23;;;1.13;;
23400;SDS011;11873;49.300;8.920;2022-08-01T19:07:38;1.17;;;1.00;;
23400;SDS011;11873;49.300;8.920;2022-08-01T19:12:38;1.10;;;1.00;;
23400;SDS011;11873;49.300;8.920;2022-08-01T19:17:39;1.63;;;1.10;;
23400;SDS011;11873;49.300;8.920;2022-08-01T19:22:39;2.07;;;1.10;;
23400;SDS011;11873;49.300;8.920;2022-08-01T19:27:39;1.40;;;1.10;;
23400;SDS011;11873;49.300;8.920;2022-08-01T19:32:41;1.00;;;1.00;;
23400;SDS011;11873;49.300;8.920;2022-08-01T19:37:42;0.73;;;0.73;;
23400;SDS011;11873;49.300;8.920;2022-08-01T19:42:43;2.00;;;1.10;;
23400;SDS011;11873;49.300;8.920;2022-08-01T19:47:43;0.80;;;0.80;;
23400;SDS011;11873;49.300;8.920;2022-08-01T19:52:44;1.20;;;1.20;;
23400;SDS011;11873;49.300;8.920;2022-08-01T19:57:45;1.33;;;0.97;;
23400;SDS011;11873;49.300;8.920;2022-08-01T20:02:45;1.10;;;1.10;;
23400;SDS011;11873;49.300;8.920;2022-08-01T20:07:46;1.17;;;1.10;;
23400;SDS011;11873;49.300;8.920;2022-08-01T20:12:46;4.73;;;1.10;;
23400;SDS011;11873;49.300;8.920;2022-08-01T20:17:46;3.03;;;1.17;;
23400;SDS011;11873;49.300;8.920;2022-08-01T20:22:47;0.90;;;0.90;;
23400;SDS011;11873;49.300;8.920;2022-08-01T20:27:48;3.30;;;1.20;;
23400;SDS011;11873;49.300;8.920;2022-08-01T20:32:48;1.30;;;1.20;;
23400;SDS011;11873;49.300;8.920;2022-08-01T20:37:50;1.00;;;1.00;;
23400;SDS011;11873;49.300;8.920;2022-08-01T20:42:52;1.63;;;1.53;;
23400;SDS011;11873;49.300;8.920;2022-08-01T20:47:52;1.03;;;1.03;;
23400;SDS011;11873;49.300;8.920;2022-08-01T20:52:54;1.10;;;1.10;;
23400;SDS011;11873;49.300;8.920;2022-08-01T20:57:54;2.30;;;1.00;;
23400;SDS011;11873;49.300;8.920;2022-08-01T21:08:01;0.90;;;0.90;;
23400;SDS011;11873;49.300;8.920;2022-08-01T21:13:06;1.70;;;1.10;;
23400;SDS011;11873;49.300;8.920;2022-08-01T21:18:09;1.13;;;1.10;;
23400;SDS011;11873;49.300;8.920;2022-08-01T21:28:28;1.10;;;1.10;;
23400;SDS011;11873;49.300;8.920;2022-08-01T21:33:28;2.00;;;1.60;;
23400;SDS011;11873;49.300;8.920;2022-08-01T21:38:29;1.30;;;1.20;;
23400;SDS011;11873;49.300;8.920;2022-08-01T21:43:30;3.17;;;1.30;;
23400;SDS011;11873;49.300;8.920;2022-08-01T21:48:31;1.43;;;1.33;;
23400;SDS011;11873;49.300;8.920;2022-08-01T21:53:35;1.20;;;1.10;;
23400;SDS011;11873;49.300;8.920;2022-08-01T21:58:40;0.97;;;0.97;;
23400;SDS011;11873;49.300;8.920;2022-08-01T22:03:46;1.60;;;1.50;;
23400;SDS011;11873;49.300;8.920;2022-08-01T22:08:53;1.37;;;1.27;;
23400;SDS011;11873;49.300;8.920;2022-08-01T22:13:59;2.57;;;1.27;;
23400;SDS011;11873;49.300;8.920;2022-08-01T22:19:02;1.43;;;1.33;;
23400;SDS011;11873;49.300;8.920;2022-08-01T22:24:03;2.80;;;1.47;;
23400;SDS011;11873;49.300;8.920;2022-08-01T22:29:03;3.50;;;1.60;;
23400;SDS011;11873;49.300;8.920;2022-08-01T22:34:04;2.80;;;1.40;;
23400;SDS011;11873;49.300;8.920;2022-08-01T22:39:05;2.67;;;1.40;;
23400;SDS011;11873;49.300;8.920;2022-08-01T22:44:09;1.97;;;1.60;;
23400;SDS011;11873;49.300;8.920;2022-08-01T22:54:36;1.40;;;1.30;;
23400;SDS011;11873;49.300;8.920;2022-08-01T22:59:40;1.30;;;1.20;;
23400;SDS011;11873;49.300;8.920;2022-08-01T23:04:44;1.40;;;1.30;;
23400;SDS011;11873;49.300;8.920;2022-08-01T23:09:45;1.47;;;1.37;;
23400;SDS011;11873;49.300;8.920;2022-08-01T23:14:45;2.43;;;1.53;;
23400;SDS011;11873;49.300;8.920;2022-08-01T23:19:45;1.63;;;1.53;;
23400;SDS011;11873;49.300;8.920;2022-08-01T23:24:46;1.50;;;1.37;;
23400;SDS011;11873;49.300;8.920;2022-08-01T23:29:47;1.50;;;1.40;;
23400;SDS011;11873;49.300;8.920;2022-08-01T23:34:48;3.17;;;1.30;;
23400;SDS011;11873;49.300;8.920;2022-08-01T23:39:48;1.65;;;1.55;;
23400;SDS011;11873;49.300;8.920;2022-08-01T23:44:48;1.30;;;1.30;;
23400;SDS011;11873;49.300;8.920;2022-08-01T23:49:49;1.53;;;1.50;;
23400;SDS011;11873;49.300;8.920;2022-08-01T23:54:49;1.60;;;1.50;;
23400;SDS011;11873;49.300;8.920;2022-08-01T23:59:49;2.03;;;1.47;;
